sensor_id;sensor_type;location;lat;lon;timestamp;pressure;altitude;pressure_sealevel;temperature;humidity
9335;BME280;4706;41.844;26.082;2023-02-28T00:01:13;101267.38;;;16.00;78.89
9335;BME280;4706;41.844;26.082;2023-02-28T00:03:38;101272.09;;;16.00;79.05
9335;BME280;4706;41.844;26.082;2023-02-28T00:06:05;101268.81;;;15.98;79.13
9335;BME280;4706;41.844;26.082;2023-02-28T00:08:30;101275.88;;;16.04;79.28
9335;BME280;4706;41.844;26.082;2023-02-28T00:10:56;101271.94;;;16.05;79.28
9335;BME280;4706;41.844;26.082;2023-02-28T00:13:25;101290.91;;;16.12;78.88
9335;BME280;4706;41.844;26.082;2023-02-28T00:16:02;101286.66;;;16.06;78.75
9335;BME280;4706;41.844;26.082;2023-02-28T00:18:28;101289.75;;;16.04;78.82
9335;BME280;4706;41.844;26.082;2023-02-28T00:20:54;101287.00;;;16.13;78.50
9335;BME280;4706;41.844;26.082;2023-02-28T00:23:19;101281.59;;;16.08;78.66
9335;BME280;4706;41.844;26.082;2023-02-28T00:25:45;101291.75;;;16.21;77.91
9335;BME280;4706;41.844;26.082;2023-02-28T00:28:10;101289.31;;;16.19;77.51
9335;BME280;4706;41.844;26.082;2023-02-28T00:30:36;101282.09;;;16.10;78.34
9335;BME280;4706;41.844;26.082;2023-02-28T00:33:02;101284.16;;;15.95;79.15
9335;BME280;4706;41.844;26.082;2023-02-28T00:35:27;101299.69;;;15.96;79.05
9335;BME280;4706;41.844;26.082;2023-02-28T00:37:53;101297.44;;;16.07;78.62
9335;BME280;4706;41.844;26.082;2023-02-28T00:40:18;101295.81;;;16.06;78.47
9335;BME280;4706;41.844;26.082;2023-02-28T00:42:44;101300.78;;;16.26;77.23
9335;BME280;4706;41.844;26.082;2023-02-28T00:45:09;101296.38;;;16.25;77.59
9335;BME280;4706;41.844;26.082;2023-02-28T00:47:35;101292.25;;;16.14;77.86
9335;BME280;4706;41.844;26.082;2023-02-28T00:50:01;101317.41;;;16.18;77.92
9335;BME280;4706;41.844;26.082;2023-02-28T00:52:26;101313.47;;;16.19;77.93
9335;BME280;4706;41.844;26.082;2023-02-28T00:54:52;101312.59;;;16.01;78.61
9335;BME280;4706;41.844;26.082;2023-02-28T00:57:17;101327.38;;;16.19;77.82
9335;BME280;4706;41.844;26.082;2023-02-28T00:59:43;101323.78;;;16.18;77.89
9335;BME280;4706;41.844;26.082;2023-02-28T01:02:08;101321.97;;;16.14;78.26
9335;BME280;4706;41.844;26.082;2023-02-28T01:04:35;101313.56;;;15.96;78.95
9335;BME280;4706;41.844;26.082;2023-02-28T01:07:01;101322.16;;;16.17;77.83
9335;BME280;4706;41.844;26.082;2023-02-28T01:09:26;101314.31;;;16.19;77.75
9335;BME280;4706;41.844;26.082;2023-02-28T01:11:52;101323.59;;;16.15;77.98
9335;BME280;4706;41.844;26.082;2023-02-28T01:14:18;101319.94;;;16.06;77.97
9335;BME280;4706;41.844;26.082;2023-02-28T01:16:43;101313.41;;;16.01;78.28
9335;BME280;4706;41.844;26.082;2023-02-28T01:19:09;101312.75;;;16.05;78.00
9335;BME280;4706;41.844;26.082;2023-02-28T01:21:34;101312.84;;;15.91;78.37
9335;BME280;4706;41.844;26.082;2023-02-28T01:24:01;101319.28;;;16.00;77.99
9335;BME280;4706;41.844;26.082;2023-02-28T01:26:26;101313.56;;;15.96;78.07
9335;BME280;4706;41.844;26.082;2023-02-28T01:28:52;101312.53;;;15.84;78.39
9335;BME280;4706;41.844;26.082;2023-02-28T01:31:19;101315.72;;;15.77;78.98
9335;BME280;4706;41.844;26.082;2023-02-28T01:33:45;101310.00;;;15.73;79.72
9335;BME280;4706;41.844;26.082;2023-02-28T01:36:16;101310.19;;;15.77;79.85
9335;BME280;4706;41.844;26.082;2023-02-28T01:38:42;101308.41;;;15.81;79.23
9335;BME280;4706;41.844;26.082;2023-02-28T01:46:10;101332.38;;;15.54;80.51
9335;BME280;4706;41.844;26.082;2023-02-28T01:48:40;101340.69;;;15.77;79.12
9335;BME280;4706;41.844;26.082;2023-02-28T01:51:15;101332.69;;;15.75;78.84
9335;BME280;4706;41.844;26.082;2023-02-28T01:53:49;101335.97;;;15.55;79.73
9335;BME280;4706;41.844;26.082;2023-02-28T01:56:20;101346.69;;;15.70;79.02
9335;BME280;4706;41.844;26.082;2023-02-28T01:58:52;101341.47;;;15.69;79.51
9335;BME280;4706;41.844;26.082;2023-02-28T02:01:18;101332.56;;;15.58;79.82
9335;BME280;4706;41.844;26.082;2023-02-28T02:03:53;101335.91;;;15.46;80.43
9335;BME280;4706;41.844;26.082;2023-02-28T02:06:44;101337.09;;;15.54;79.77
9335;BME280;4706;41.844;26.082;2023-02-28T02:09:09;101352.06;;;15.53;79.74
9335;BME280;4706;41.844;26.082;2023-02-28T02:11:35;101348.28;;;15.49;80.15
9335;BME280;4706;41.844;26.082;2023-02-28T02:14:09;101344.84;;;15.43;80.53
9335;BME280;4706;41.844;26.082;2023-02-28T02:16:41;101341.13;;;15.48;79.97
9335;BME280;4706;41.844;26.082;2023-02-28T02:30:53;101366.84;;;15.85;77.28
9335;BME280;4706;41.844;26.082;2023-02-28T02:35:54;101364.97;;;15.71;77.84
9335;BME280;4706;41.844;26.082;2023-02-28T02:38:45;101364.88;;;15.63;78.39
9335;BME280;4706;41.844;26.082;2023-02-28T02:43:46;101371.25;;;15.63;78.02
9335;BME280;4706;41.844;26.082;2023-02-28T02:46:33;101383.47;;;15.62;78.43
9335;BME280;4706;41.844;26.082;2023-02-28T02:49:06;101368.72;;;15.53;78.32
9335;BME280;4706;41.844;26.082;2023-02-28T02:51:33;101367.91;;;15.52;79.01
9335;BME280;4706;41.844;26.082;2023-02-28T02:54:05;101362.50;;;15.47;79.28
9335;BME280;4706;41.844;26.082;2023-02-28T02:56:34;101365.88;;;15.44;79.30
9335;BME280;4706;41.844;26.082;2023-02-28T02:59:04;101358.19;;;15.41;79.14
9335;BME280;4706;41.844;26.082;2023-02-28T03:01:33;101350.75;;;15.28;79.26
9335;BME280;4706;41.844;26.082;2023-02-28T03:04:09;101368.41;;;15.32;79.42
9335;BME280;4706;41.844;26.082;2023-02-28T03:06:35;101363.66;;;15.33;79.14
9335;BME280;4706;41.844;26.082;2023-02-28T03:09:02;101386.22;;;15.40;79.59
9335;BME280;4706;41.844;26.082;2023-02-28T03:11:28;101379.53;;;15.41;79.22
9335;BME280;4706;41.844;26.082;2023-02-28T03:27:16;101406.81;;;15.25;80.30
9335;BME280;4706;41.844;26.082;2023-02-28T03:29:47;101400.44;;;15.24;79.90
9335;BME280;4706;41.844;26.082;2023-02-28T03:32:27;101414.56;;;15.37;78.83
9335;BME280;4706;41.844;26.082;2023-02-28T03:35:14;101400.91;;;15.40;77.52
9335;BME280;4706;41.844;26.082;2023-02-28T03:37:50;101395.13;;;15.50;75.09
9335;BME280;4706;41.844;26.082;2023-02-28T03:40:21;101391.44;;;15.41;75.02
9335;BME280;4706;41.844;26.082;2023-02-28T03:42:50;101401.97;;;15.53;74.19
9335;BME280;4706;41.844;26.082;2023-02-28T03:45:26;101409.19;;;15.54;73.52
9335;BME280;4706;41.844;26.082;2023-02-28T03:47:57;101415.75;;;15.58;72.37
9335;BME280;4706;41.844;26.082;2023-02-28T03:50:36;101419.81;;;15.61;70.63
9335;BME280;4706;41.844;26.082;2023-02-28T03:53:17;101418.25;;;15.46;70.83
9335;BME280;4706;41.844;26.082;2023-02-28T03:58:39;101420.34;;;15.26;70.83
9335;BME280;4706;41.844;26.082;2023-02-28T04:01:13;101426.72;;;15.27;70.88
9335;BME280;4706;41.844;26.082;2023-02-28T04:03:42;101421.13;;;15.04;71.64
9335;BME280;4706;41.844;26.082;2023-02-28T04:06:22;101427.50;;;14.91;71.92
9335;BME280;4706;41.844;26.082;2023-02-28T04:08:49;101434.59;;;14.97;71.45
9335;BME280;4706;41.844;26.082;2023-02-28T04:14:03;101425.63;;;15.00;71.02
9335;BME280;4706;41.844;26.082;2023-02-28T04:16:34;101445.53;;;15.02;71.02
9335;BME280;4706;41.844;26.082;2023-02-28T04:19:02;101454.38;;;15.04;70.95
9335;BME280;4706;41.844;26.082;2023-02-28T04:21:32;101465.47;;;15.04;70.69
9335;BME280;4706;41.844;26.082;2023-02-28T04:23:58;101471.94;;;14.86;70.90
9335;BME280;4706;41.844;26.082;2023-02-28T04:26:31;101480.53;;;14.85;70.98
9335;BME280;4706;41.844;26.082;2023-02-28T04:28:57;101480.53;;;14.85;71.06
9335;BME280;4706;41.844;26.082;2023-02-28T04:31:23;101483.81;;;14.87;70.91
9335;BME280;4706;41.844;26.082;2023-02-28T04:33:49;101477.56;;;14.95;70.13
9335;BME280;4706;41.844;26.082;2023-02-28T04:36:14;101488.22;;;14.88;71.38
9335;BME280;4706;41.844;26.082;2023-02-28T04:38:43;101495.41;;;14.89;71.08
9335;BME280;4706;41.844;26.082;2023-02-28T04:41:09;101491.31;;;14.86;71.38
9335;BME280;4706;41.844;26.082;2023-02-28T04:43:35;101488.41;;;14.77;71.35
9335;BME280;4706;41.844;26.082;2023-02-28T04:46:02;101488.75;;;14.76;73.72
9335;BME280;4706;41.844;26.082;2023-02-28T04:48:29;101494.16;;;14.81;74.96
9335;BME280;4706;41.844;26.082;2023-02-28T04:50:55;101501.63;;;14.67;75.32
9335;BME280;4706;41.844;26.082;2023-02-28T04:53:24;101508.06;;;14.48;76.38
9335;BME280;4706;41.844;26.082;2023-02-28T04:55:50;101503.50;;;14.39;76.91
9335;BME280;4706;41.844;26.082;2023-02-28T04:58:15;101524.94;;;14.47;77.11
9335;BME280;4706;41.844;26.082;2023-02-28T05:00:41;101521.38;;;14.46;77.01
9335;BME280;4706;41.844;26.082;2023-02-28T05:03:07;101521.50;;;14.55;76.08
9335;BME280;4706;41.844;26.082;2023-02-28T05:05:32;101521.66;;;14.64;75.46
9335;BME280;4706;41.844;26.082;2023-02-28T05:07:58;101517.63;;;14.56;75.68
9335;BME280;4706;41.844;26.082;2023-02-28T05:10:23;101534.25;;;14.70;75.56
9335;BME280;4706;41.844;26.082;2023-02-28T05:12:49;101529.31;;;14.67;75.40
9335;BME280;4706;41.844;26.082;2023-02-28T05:15:16;101533.44;;;14.69;75.47
9335;BME280;4706;41.844;26.082;2023-02-28T05:17:42;101543.38;;;14.56;75.87
9335;BME280;4706;41.844;26.082;2023-02-28T05:20:09;101548.22;;;14.65;75.92
9335;BME280;4706;41.844;26.082;2023-02-28T05:22:39;101555.59;;;14.69;75.69
9335;BME280;4706;41.844;26.082;2023-02-28T05:25:05;101553.03;;;14.73;75.60
9335;BME280;4706;41.844;26.082;2023-02-28T05:27:31;101559.22;;;14.84;74.39
9335;BME280;4706;41.844;26.082;2023-02-28T05:29:57;101549.69;;;14.90;72.55
9335;BME280;4706;41.844;26.082;2023-02-28T05:32:22;101565.88;;;14.96;72.34
9335;BME280;4706;41.844;26.082;2023-02-28T05:34:48;101573.28;;;14.87;72.51
9335;BME280;4706;41.844;26.082;2023-02-28T05:37:14;101577.09;;;14.91;72.48
9335;BME280;4706;41.844;26.082;2023-02-28T05:39:41;101572.56;;;14.95;72.36
9335;BME280;4706;41.844;26.082;2023-02-28T05:42:08;101563.44;;;14.95;72.04
9335;BME280;4706;41.844;26.082;2023-02-28T05:44:35;101559.31;;;14.92;72.01
9335;BME280;4706;41.844;26.082;2023-02-28T05:47:00;101563.88;;;15.02;71.37
9335;BME280;4706;41.844;26.082;2023-02-28T05:49:26;101579.97;;;15.00;72.02
9335;BME280;4706;41.844;26.082;2023-02-28T05:51:51;101576.16;;;14.96;72.23
9335;BME280;4706;41.844;26.082;2023-02-28T05:54:17;101585.72;;;15.03;72.27
9335;BME280;4706;41.844;26.082;2023-02-28T05:56:42;101578.09;;;14.95;72.43
9335;BME280;4706;41.844;26.082;2023-02-28T05:59:11;101582.72;;;14.86;72.83
9335;BME280;4706;41.844;26.082;2023-02-28T06:01:42;101589.59;;;14.89;72.13
9335;BME280;4706;41.844;26.082;2023-02-28T06:04:15;101605.00;;;14.95;72.50
9335;BME280;4706;41.844;26.082;2023-02-28T06:06:47;101610.53;;;14.95;71.79
9335;BME280;4706;41.844;26.082;2023-02-28T06:09:12;101590.31;;;14.94;72.10
9335;BME280;4706;41.844;26.082;2023-02-28T06:11:38;101606.94;;;14.94;72.63
9335;BME280;4706;41.844;26.082;2023-02-28T06:14:04;101604.19;;;14.94;72.09
9335;BME280;4706;41.844;26.082;2023-02-28T06:16:31;101614.03;;;15.00;71.81
9335;BME280;4706;41.844;26.082;2023-02-28T06:18:58;101617.44;;;14.97;71.75
9335;BME280;4706;41.844;26.082;2023-02-28T06:21:24;101626.25;;;14.99;71.46
9335;BME280;4706;41.844;26.082;2023-02-28T06:23:50;101618.47;;;15.01;71.41
9335;BME280;4706;41.844;26.082;2023-02-28T06:26:16;101614.75;;;15.06;70.97
9335;BME280;4706;41.844;26.082;2023-02-28T06:28:42;101619.91;;;15.13;70.77
9335;BME280;4706;41.844;26.082;2023-02-28T06:31:09;101623.91;;;15.20;70.44
9335;BME280;4706;41.844;26.082;2023-02-28T06:33:37;101616.94;;;15.23;70.25
9335;BME280;4706;41.844;26.082;2023-02-28T06:36:03;101626.19;;;15.32;70.24
9335;BME280;4706;41.844;26.082;2023-02-28T06:38:29;101629.78;;;15.33;69.90
9335;BME280;4706;41.844;26.082;2023-02-28T06:40:57;101634.72;;;15.36;69.42
9335;BME280;4706;41.844;26.082;2023-02-28T06:43:24;101636.56;;;15.40;69.12
9335;BME280;4706;41.844;26.082;2023-02-28T06:45:53;101638.50;;;15.40;69.32
9335;BME280;4706;41.844;26.082;2023-02-28T06:48:19;101630.00;;;15.50;68.80
9335;BME280;4706;41.844;26.082;2023-02-28T06:50:44;101638.31;;;15.50;68.89
9335;BME280;4706;41.844;26.082;2023-02-28T06:53:10;101629.38;;;15.39;68.80
9335;BME280;4706;41.844;26.082;2023-02-28T06:55:37;101636.66;;;15.49;68.04
9335;BME280;4706;41.844;26.082;2023-02-28T06:58:03;101637.09;;;15.42;68.38
9335;BME280;4706;41.844;26.082;2023-02-28T07:00:28;101643.75;;;15.41;68.32
9335;BME280;4706;41.844;26.082;2023-02-28T07:02:54;101660.91;;;15.43;68.29
9335;BME280;4706;41.844;26.082;2023-02-28T07:05:20;101651.56;;;15.39;68.34
9335;BME280;4706;41.844;26.082;2023-02-28T07:07:45;101653.28;;;15.49;67.43
9335;BME280;4706;41.844;26.082;2023-02-28T07:10:12;101645.47;;;15.37;68.12
9335;BME280;4706;41.844;26.082;2023-02-28T07:12:41;101648.19;;;15.42;68.07
9335;BME280;4706;41.844;26.082;2023-02-28T07:15:06;101633.78;;;15.40;67.74
9335;BME280;4706;41.844;26.082;2023-02-28T07:17:32;101653.09;;;15.45;67.85
9335;BME280;4706;41.844;26.082;2023-02-28T07:19:58;101649.00;;;15.43;67.71
9335;BME280;4706;41.844;26.082;2023-02-28T07:22:23;101654.09;;;15.49;67.41
9335;BME280;4706;41.844;26.082;2023-02-28T07:24:50;101645.69;;;15.54;67.10
9335;BME280;4706;41.844;26.082;2023-02-28T07:27:15;101641.78;;;15.55;66.98
9335;BME280;4706;41.844;26.082;2023-02-28T07:29:52;101649.72;;;15.62;66.34
9335;BME280;4706;41.844;26.082;2023-02-28T07:32:19;101663.81;;;15.66;66.10
9335;BME280;4706;41.844;26.082;2023-02-28T07:34:45;101653.75;;;15.70;65.79
9335;BME280;4706;41.844;26.082;2023-02-28T07:37:10;101649.81;;;15.71;65.41
9335;BME280;4706;41.844;26.082;2023-02-28T07:39:36;101657.13;;;15.81;65.46
9335;BME280;4706;41.844;26.082;2023-02-28T07:42:05;101654.13;;;15.91;64.72
9335;BME280;4706;41.844;26.082;2023-02-28T07:44:31;101635.22;;;15.93;64.90
9335;BME280;4706;41.844;26.082;2023-02-28T07:46:57;101652.47;;;16.03;64.79
9335;BME280;4706;41.844;26.082;2023-02-28T07:49:23;101653.97;;;16.10;63.92
9335;BME280;4706;41.844;26.082;2023-02-28T07:51:48;101650.38;;;16.09;63.97
9335;BME280;4706;41.844;26.082;2023-02-28T07:54:14;101642.72;;;16.06;63.84
9335;BME280;4706;41.844;26.082;2023-02-28T07:56:39;101646.91;;;16.03;63.82
9335;BME280;4706;41.844;26.082;2023-02-28T07:59:05;101648.25;;;16.06;63.62
9335;BME280;4706;41.844;26.082;2023-02-28T08:01:30;101656.97;;;16.13;62.37
9335;BME280;4706;41.844;26.082;2023-02-28T08:03:55;101654.69;;;16.15;62.38
9335;BME280;4706;41.844;26.082;2023-02-28T08:06:23;101657.09;;;16.08;62.87
9335;BME280;4706;41.844;26.082;2023-02-28T08:08:49;101658.16;;;15.98;63.48
9335;BME280;4706;41.844;26.082;2023-02-28T08:11:16;101655.44;;;16.07;63.31
9335;BME280;4706;41.844;26.082;2023-02-28T08:13:42;101653.97;;;16.10;62.35
9335;BME280;4706;41.844;26.082;2023-02-28T08:16:10;101663.44;;;16.09;62.05
9335;BME280;4706;41.844;26.082;2023-02-28T08:18:36;101667.28;;;15.99;61.68
9335;BME280;4706;41.844;26.082;2023-02-28T08:21:08;101667.50;;;15.89;62.14
9335;BME280;4706;41.844;26.082;2023-02-28T08:23:34;101657.34;;;15.84;62.49
9335;BME280;4706;41.844;26.082;2023-02-28T08:26:00;101661.63;;;15.90;62.37
9335;BME280;4706;41.844;26.082;2023-02-28T08:28:25;101673.44;;;15.96;62.06
9335;BME280;4706;41.844;26.082;2023-02-28T08:30:51;101676.31;;;15.91;61.47
9335;BME280;4706;41.844;26.082;2023-02-28T08:33:16;101663.56;;;15.90;61.49
9335;BME280;4706;41.844;26.082;2023-02-28T08:35:42;101659.88;;;15.94;61.27
9335;BME280;4706;41.844;26.082;2023-02-28T08:38:07;101667.28;;;15.85;61.74
9335;BME280;4706;41.844;26.082;2023-02-28T08:40:33;101673.97;;;15.84;62.23
9335;BME280;4706;41.844;26.082;2023-02-28T08:42:59;101669.84;;;15.82;62.00
9335;BME280;4706;41.844;26.082;2023-02-28T08:45:25;101668.03;;;15.77;62.04
9335;BME280;4706;41.844;26.082;2023-02-28T08:47:51;101651.34;;;15.63;62.50
9335;BME280;4706;41.844;26.082;2023-02-28T08:50:17;101661.63;;;15.63;63.00
9335;BME280;4706;41.844;26.082;2023-02-28T08:52:43;101673.25;;;15.65;62.80
9335;BME280;4706;41.844;26.082;2023-02-28T08:55:10;101671.69;;;15.59;63.40
9335;BME280;4706;41.844;26.082;2023-02-28T08:57:35;101662.75;;;15.62;63.94
9335;BME280;4706;41.844;26.082;2023-02-28T09:00:01;101656.00;;;15.68;63.51
9335;BME280;4706;41.844;26.082;2023-02-28T09:02:30;101656.00;;;15.68;63.63
9335;BME280;4706;41.844;26.082;2023-02-28T09:04:57;101658.06;;;15.76;63.80
9335;BME280;4706;41.844;26.082;2023-02-28T09:07:23;101655.19;;;15.81;63.97
9335;BME280;4706;41.844;26.082;2023-02-28T09:09:49;101657.09;;;15.94;63.72
9335;BME280;4706;41.844;26.082;2023-02-28T09:12:22;101648.44;;;16.10;62.84
9335;BME280;4706;41.844;26.082;2023-02-28T09:14:47;101654.19;;;16.13;62.55
9335;BME280;4706;41.844;26.082;2023-02-28T09:17:13;101653.75;;;16.20;62.05
9335;BME280;4706;41.844;26.082;2023-02-28T09:19:39;101650.88;;;16.25;62.03
9335;BME280;4706;41.844;26.082;2023-02-28T09:22:04;101659.16;;;16.39;61.67
9335;BME280;4706;41.844;26.082;2023-02-28T09:24:29;101662.94;;;16.43;61.32
9335;BME280;4706;41.844;26.082;2023-02-28T09:26:57;101655.81;;;16.50;61.22
9335;BME280;4706;41.844;26.082;2023-02-28T09:29:22;101650.66;;;16.58;61.68
9335;BME280;4706;41.844;26.082;2023-02-28T09:31:48;101657.91;;;16.67;61.21
9335;BME280;4706;41.844;26.082;2023-02-28T09:34:13;101653.47;;;16.80;61.18
9335;BME280;4706;41.844;26.082;2023-02-28T09:36:39;101652.88;;;16.92;60.61
9335;BME280;4706;41.844;26.082;2023-02-28T09:39:05;101659.97;;;16.98;60.32
9335;BME280;4706;41.844;26.082;2023-02-28T09:41:39;101656.34;;;16.97;60.40
9335;BME280;4706;41.844;26.082;2023-02-28T09:44:17;101649.47;;;16.95;60.43
9335;BME280;4706;41.844;26.082;2023-02-28T09:46:47;101631.41;;;17.15;60.45
9335;BME280;4706;41.844;26.082;2023-02-28T09:49:19;101639.25;;;17.44;58.82
9335;BME280;4706;41.844;26.082;2023-02-28T09:51:51;101642.41;;;17.60;58.87
9335;BME280;4706;41.844;26.082;2023-02-28T09:54:22;101645.69;;;17.62;58.40
9335;BME280;4706;41.844;26.082;2023-02-28T09:56:51;101648.00;;;17.68;58.38
9335;BME280;4706;41.844;26.082;2023-02-28T09:59:40;101649.47;;;17.66;57.42
9335;BME280;4706;41.844;26.082;2023-02-28T10:13:04;101636.19;;;17.54;58.38
9335;BME280;4706;41.844;26.082;2023-02-28T10:15:32;101637.63;;;17.52;58.35
9335;BME280;4706;41.844;26.082;2023-02-28T10:18:13;101635.97;;;17.42;58.36
9335;BME280;4706;41.844;26.082;2023-02-28T10:20:41;101639.53;;;17.34;58.86
9335;BME280;4706;41.844;26.082;2023-02-28T10:23:28;101635.25;;;17.28;59.32
9335;BME280;4706;41.844;26.082;2023-02-28T10:26:00;101637.22;;;17.27;59.79
9335;BME280;4706;41.844;26.082;2023-02-28T10:28:26;101628.69;;;17.23;60.19
9335;BME280;4706;41.844;26.082;2023-02-28T10:30:54;101612.84;;;17.24;59.84
9335;BME280;4706;41.844;26.082;2023-02-28T10:33:26;101605.16;;;17.30;60.00
9335;BME280;4706;41.844;26.082;2023-02-28T10:35:53;101607.81;;;17.35;60.05
9335;BME280;4706;41.844;26.082;2023-02-28T10:38:22;101599.41;;;17.26;59.80
9335;BME280;4706;41.844;26.082;2023-02-28T10:40:48;101614.09;;;17.18;59.76
9335;BME280;4706;41.844;26.082;2023-02-28T10:56:03;101574.81;;;17.11;60.13
9335;BME280;4706;41.844;26.082;2023-02-28T11:01:24;101556.88;;;17.17;59.31
9335;BME280;4706;41.844;26.082;2023-02-28T11:03:51;101513.16;;;17.00;58.86
9335;BME280;4706;41.844;26.082;2023-02-28T11:06:20;101547.56;;;17.21;59.09
9335;BME280;4706;41.844;26.082;2023-02-28T11:11:21;101555.94;;;17.30;58.49
9335;BME280;4706;41.844;26.082;2023-02-28T11:13:52;101555.59;;;17.32;58.44
9335;BME280;4706;41.844;26.082;2023-02-28T11:16:18;101561.81;;;17.29;58.39
9335;BME280;4706;41.844;26.082;2023-02-28T11:18:54;101555.28;;;17.33;58.69
9335;BME280;4706;41.844;26.082;2023-02-28T11:21:27;101549.06;;;17.36;58.93
9335;BME280;4706;41.844;26.082;2023-02-28T11:24:04;101529.97;;;17.43;58.25
9335;BME280;4706;41.844;26.082;2023-02-28T11:26:46;101538.31;;;17.52;58.66
9335;BME280;4706;41.844;26.082;2023-02-28T11:29:16;101540.63;;;17.59;58.36
9335;BME280;4706;41.844;26.082;2023-02-28T11:31:42;101536.69;;;17.51;58.34
9335;BME280;4706;41.844;26.082;2023-02-28T11:34:28;101534.72;;;17.52;58.11
9335;BME280;4706;41.844;26.082;2023-02-28T11:36:57;101531.75;;;17.31;58.77
9335;BME280;4706;41.844;26.082;2023-02-28T11:39:24;101536.34;;;17.44;58.44
9335;BME280;4706;41.844;26.082;2023-02-28T11:42:17;101537.06;;;17.18;59.33
9335;BME280;4706;41.844;26.082;2023-02-28T11:47:44;101522.06;;;17.19;59.77
9335;BME280;4706;41.844;26.082;2023-02-28T12:06:45;101546.47;;;16.91;62.12
9335;BME280;4706;41.844;26.082;2023-02-28T12:09:55;101540.41;;;16.89;62.81
9335;BME280;4706;41.844;26.082;2023-02-28T12:25:39;101539.88;;;16.56;70.95
9335;BME280;4706;41.844;26.082;2023-02-28T12:28:14;101535.09;;;16.48;71.56
9335;BME280;4706;41.844;26.082;2023-02-28T12:30:49;101540.84;;;16.29;72.12
9335;BME280;4706;41.844;26.082;2023-02-28T12:33:22;101533.56;;;16.42;73.69
9335;BME280;4706;41.844;26.082;2023-02-28T12:35:58;101514.84;;;16.25;73.96
9335;BME280;4706;41.844;26.082;2023-02-28T12:38:36;101524.75;;;16.17;74.62
9335;BME280;4706;41.844;26.082;2023-02-28T12:41:08;101518.81;;;16.33;74.94
9335;BME280;4706;41.844;26.082;2023-02-28T12:43:40;101512.81;;;16.17;75.07
9335;BME280;4706;41.844;26.082;2023-02-28T12:46:24;101514.59;;;16.13;75.51
9335;BME280;4706;41.844;26.082;2023-02-28T12:48:56;101521.53;;;16.24;74.57
9335;BME280;4706;41.844;26.082;2023-02-28T12:51:24;101520.41;;;16.02;74.57
9335;BME280;4706;41.844;26.082;2023-02-28T12:59:38;101517.50;;;15.71;78.12
9335;BME280;4706;41.844;26.082;2023-02-28T13:05:07;101514.56;;;15.54;78.40
9335;BME280;4706;41.844;26.082;2023-02-28T13:10:09;101520.41;;;15.66;77.43
9335;BME280;4706;41.844;26.082;2023-02-28T13:12:35;101514.84;;;15.52;77.97
9335;BME280;4706;41.844;26.082;2023-02-28T13:15:08;101527.81;;;15.57;78.18
9335;BME280;4706;41.844;26.082;2023-02-28T13:17:41;101520.09;;;15.54;78.90
9335;BME280;4706;41.844;26.082;2023-02-28T13:20:47;101527.00;;;15.43;78.63
9335;BME280;4706;41.844;26.082;2023-02-28T13:26:05;101515.84;;;15.20;79.65
9335;BME280;4706;41.844;26.082;2023-02-28T13:31:19;101515.44;;;15.13;81.62
9335;BME280;4706;41.844;26.082;2023-02-28T13:36:32;101516.03;;;15.24;81.62
9335;BME280;4706;41.844;26.082;2023-02-28T13:42:35;101514.50;;;15.18;81.94
9335;BME280;4706;41.844;26.082;2023-02-28T13:56:10;101519.44;;;15.21;82.90
9335;BME280;4706;41.844;26.082;2023-02-28T13:58:54;101517.78;;;15.20;83.38
9335;BME280;4706;41.844;26.082;2023-02-28T14:04:46;101520.56;;;15.20;82.97
9335;BME280;4706;41.844;26.082;2023-02-28T14:07:23;101511.44;;;15.05;84.48
9335;BME280;4706;41.844;26.082;2023-02-28T14:10:01;101507.22;;;14.94;85.62
9335;BME280;4706;41.844;26.082;2023-02-28T14:12:53;101514.09;;;15.11;84.98
9335;BME280;4706;41.844;26.082;2023-02-28T14:18:13;101517.69;;;14.97;86.02
9335;BME280;4706;41.844;26.082;2023-02-28T14:20:40;101517.06;;;14.87;86.07
9335;BME280;4706;41.844;26.082;2023-02-28T14:32:01;101523.31;;;15.06;85.60
9335;BME280;4706;41.844;26.082;2023-02-28T14:34:39;101525.47;;;14.95;86.07
9335;BME280;4706;41.844;26.082;2023-02-28T14:37:15;101521.25;;;14.84;87.04
9335;BME280;4706;41.844;26.082;2023-02-28T14:39:44;101523.91;;;14.89;86.62
9335;BME280;4706;41.844;26.082;2023-02-28T14:42:30;101531.34;;;14.94;85.48
9335;BME280;4706;41.844;26.082;2023-02-28T14:44:56;101531.13;;;15.04;84.86
9335;BME280;4706;41.844;26.082;2023-02-28T14:47:23;101531.22;;;14.99;84.20
9335;BME280;4706;41.844;26.082;2023-02-28T14:49:50;101530.78;;;14.78;86.57
9335;BME280;4706;41.844;26.082;2023-02-28T14:52:30;101530.59;;;14.74;85.70
9335;BME280;4706;41.844;26.082;2023-02-28T14:55:04;101539.81;;;14.84;87.44
9335;BME280;4706;41.844;26.082;2023-02-28T14:57:34;101537.94;;;14.65;87.86
9335;BME280;4706;41.844;26.082;2023-02-28T15:00:06;101528.94;;;14.60;88.88
9335;BME280;4706;41.844;26.082;2023-02-28T15:02:36;101531.09;;;14.76;87.73
9335;BME280;4706;41.844;26.082;2023-02-28T15:05:25;101537.06;;;14.84;87.52
9335;BME280;4706;41.844;26.082;2023-02-28T15:08:02;101536.69;;;14.57;88.19
9335;BME280;4706;41.844;26.082;2023-02-28T15:10:28;101534.03;;;14.52;89.76
9335;BME280;4706;41.844;26.082;2023-02-28T15:13:02;101533.13;;;14.57;90.30
9335;BME280;4706;41.844;26.082;2023-02-28T15:15:57;101541.75;;;14.55;89.04
9335;BME280;4706;41.844;26.082;2023-02-28T15:18:44;101545.81;;;14.58;89.15
9335;BME280;4706;41.844;26.082;2023-02-28T15:21:18;101540.50;;;14.62;87.77
9335;BME280;4706;41.844;26.082;2023-02-28T15:23:48;101545.38;;;14.84;87.84
9335;BME280;4706;41.844;26.082;2023-02-28T15:26:21;101538.13;;;14.55;89.20
9335;BME280;4706;41.844;26.082;2023-02-28T15:28:57;101550.03;;;14.55;89.53
9335;BME280;4706;41.844;26.082;2023-02-28T15:31:51;101547.06;;;14.52;89.38
9335;BME280;4706;41.844;26.082;2023-02-28T15:34:35;101553.78;;;14.46;90.11
9335;BME280;4706;41.844;26.082;2023-02-28T15:37:01;101549.75;;;14.38;90.80
9335;BME280;4706;41.844;26.082;2023-02-28T15:39:41;101545.03;;;14.39;88.93
9335;BME280;4706;41.844;26.082;2023-02-28T15:42:12;101560.66;;;14.48;89.22
9335;BME280;4706;41.844;26.082;2023-02-28T15:44:38;101553.78;;;14.46;88.39